createdAt,value
2023-07-01T00:00:26.768Z,84.06
2023-07-01T00:01:31.151Z,83.99
2023-07-01T00:02:35.661Z,83.92
2023-07-01T00:03:39.941Z,83.91
2023-07-01T00:04:44.418Z,84.02
2023-07-01T00:05:48.681Z,84.09
2023-07-01T00:06:53.208Z,84.22
2023-07-01T00:07:57.630Z,84.12
2023-07-01T00:09:02.008Z,84.07
2023-07-01T00:10:06.415Z,83.98
2023-07-01T00:11:10.811Z,83.86
2023-07-01T00:12:15.189Z,83.80
2023-07-01T00:13:19.516Z,83.69
2023-07-01T00:14:24.012Z,83.63
2023-07-01T00:15:28.426Z,83.55
2023-07-01T00:16:32.846Z,83.55
2023-07-01T00:17:37.250Z,83.59
2023-07-01T00:18:41.726Z,83.59
2023-07-01T00:19:46.104Z,83.56
2023-07-01T00:20:50.541Z,83.49
2023-07-01T00:21:54.918Z,83.45
2023-07-01T00:22:59.202Z,83.44
2023-07-01T00:24:03.644Z,83.47
2023-07-01T00:25:08.254Z,83.52
2023-07-01T00:26:12.672Z,83.57
2023-07-01T00:27:16.981Z,83.61
2023-07-01T00:28:21.333Z,83.65
2023-07-01T00:29:25.768Z,83.65
2023-07-01T00:30:30.156Z,83.65
2023-07-01T00:31:34.664Z,83.71
2023-07-01T00:32:38.952Z,83.75
2023-07-01T00:33:43.370Z,83.75
2023-07-01T00:34:47.713Z,83.78
2023-07-01T00:35:52.107Z,83.76
2023-07-01T00:36:56.515Z,83.79
2023-07-01T00:38:00.893Z,83.85
2023-07-01T00:39:05.432Z,83.86
2023-07-01T00:40:09.629Z,83.88
2023-07-01T00:41:14.065Z,83.88
2023-07-01T00:42:18.375Z,83.87
2023-07-01T00:43:22.839Z,83.91
2023-07-01T00:44:27.312Z,83.94
2023-07-01T00:45:31.682Z,83.98
2023-07-01T00:46:36.183Z,83.96
2023-07-01T00:47:40.387Z,83.97
2023-07-01T00:48:44.809Z,84.01
2023-07-01T00:49:49.076Z,83.98
2023-07-01T00:50:53.460Z,84.01
2023-07-01T00:51:57.827Z,84.02
2023-07-01T00:53:02.200Z,84.07
2023-07-01T00:54:06.591Z,84.11
2023-07-01T00:55:10.936Z,84.16
2023-07-01T00:56:15.297Z,84.23
2023-07-01T00:57:19.689Z,84.28
2023-07-01T00:58:24.047Z,84.37
2023-07-01T00:59:28.377Z,84.48
2023-07-01T01:00:32.826Z,84.53
2023-07-01T01:01:37.353Z,84.58
2023-07-01T01:02:41.685Z,84.67
2023-07-01T01:03:46.014Z,84.76
2023-07-01T01:04:50.383Z,84.87
2023-07-01T01:05:54.705Z,84.90
2023-07-01T01:07:13.349Z,84.85
2023-07-01T01:08:16.345Z,84.89
2023-07-01T01:09:20.633Z,85.02
2023-07-01T01:10:25.100Z,85.17
2023-07-01T01:11:29.531Z,85.27
2023-07-01T01:12:33.838Z,85.44
2023-07-01T01:13:38.318Z,85.39
2023-07-01T01:14:42.705Z,85.38
2023-07-01T01:15:47.052Z,85.35
2023-07-01T01:16:51.463Z,85.50
2023-07-01T01:17:55.916Z,85.53
2023-07-01T01:19:00.195Z,85.59
2023-07-01T01:20:04.541Z,85.69
2023-07-01T01:21:08.894Z,86.05
2023-07-01T01:22:13.324Z,86.14
2023-07-01T01:23:17.685Z,86.10
2023-07-01T01:24:22.078Z,86.04
2023-07-01T01:25:29.470Z,86.02
2023-07-01T01:26:32.885Z,86.08
2023-07-01T01:27:37.363Z,86.20
2023-07-01T01:28:41.700Z,86.22
2023-07-01T01:29:46.088Z,86.19
2023-07-01T01:30:50.446Z,86.25
2023-07-01T01:31:54.782Z,86.32
2023-07-01T01:32:59.188Z,86.54
2023-07-01T01:34:03.528Z,86.79
2023-07-01T01:35:07.874Z,86.77
2023-07-01T01:36:12.288Z,86.77
2023-07-01T01:37:16.607Z,86.75
2023-07-01T01:38:21.005Z,86.83
2023-07-01T01:39:25.344Z,86.86
2023-07-01T01:40:29.670Z,87.01
2023-07-01T01:41:34.126Z,87.25
2023-07-01T01:42:38.440Z,87.38
2023-07-01T01:43:42.800Z,87.30
2023-07-01T01:44:47.369Z,87.32
2023-07-01T01:45:51.719Z,87.38
2023-07-01T01:46:56.068Z,87.51
2023-07-01T01:48:03.518Z,87.64
2023-07-01T01:49:06.886Z,87.70
2023-07-01T01:50:17.352Z,87.79
2023-07-01T01:51:20.357Z,87.81
2023-07-01T01:52:38.722Z,87.90
2023-07-01T01:53:41.912Z,87.92
2023-07-01T01:54:46.197Z,87.98
2023-07-01T01:55:50.563Z,88.08
2023-07-01T01:56:54.854Z,88.06
2023-07-01T01:57:59.198Z,88.02
2023-07-01T01:59:03.629Z,88.01
2023-07-01T02:00:08.047Z,88.08
2023-07-01T02:01:12.445Z,88.10
2023-07-01T02:02:16.745Z,88.07
2023-07-01T02:03:21.276Z,88.13
2023-07-01T02:04:25.730Z,88.39
2023-07-01T02:05:35.968Z,88.45
2023-07-01T02:06:38.890Z,88.50
2023-07-01T02:07:43.328Z,88.67
2023-07-01T02:08:47.651Z,88.95
2023-07-01T02:09:51.986Z,89.40
2023-07-01T02:10:56.398Z,89.72
2023-07-01T02:12:00.786Z,89.76
2023-07-01T02:14:32.211Z,89.98
2023-07-01T02:15:36.471Z,90.29
2023-07-01T02:16:40.840Z,90.40
2023-07-01T02:17:45.179Z,90.48
2023-07-01T02:18:49.500Z,90.70
2023-07-01T02:19:53.885Z,90.93
2023-07-01T02:20:58.261Z,91.02
2023-07-01T02:22:02.612Z,91.15
2023-07-01T02:23:06.968Z,91.10
2023-07-01T02:24:11.303Z,91.22
2023-07-01T02:25:15.672Z,91.38
2023-07-01T02:26:19.952Z,91.56
2023-07-01T02:27:24.423Z,91.50
2023-07-01T02:28:28.722Z,91.67
2023-07-01T02:29:33.141Z,91.83
2023-07-01T02:30:37.655Z,91.98
2023-07-01T02:31:42.044Z,92.11
2023-07-01T02:32:46.364Z,92.44
2023-07-01T02:33:50.866Z,92.70
2023-07-01T02:35:09.299Z,92.89
2023-07-01T02:36:12.180Z,93.18
2023-07-01T02:37:16.495Z,93.46
2023-07-01T02:38:20.856Z,93.69
2023-07-01T02:39:25.194Z,93.90
2023-07-01T02:40:29.440Z,94.03
2023-07-01T02:41:33.946Z,94.10
2023-07-01T02:42:38.369Z,94.09
2023-07-01T02:43:42.740Z,93.92
2023-07-01T02:44:47.049Z,93.75
2023-07-01T02:45:51.500Z,93.60
2023-07-01T02:46:55.880Z,93.59
2023-07-01T02:48:00.265Z,93.43
2023-07-01T02:49:04.529Z,93.23
2023-07-01T02:50:08.901Z,93.08
2023-07-01T02:51:13.205Z,92.93
2023-07-01T02:52:17.719Z,92.77
2023-07-01T02:53:22.026Z,92.66
2023-07-01T02:54:26.382Z,92.52
2023-07-01T02:55:30.810Z,92.42
2023-07-01T02:56:49.242Z,92.34
2023-07-01T02:57:52.156Z,92.30
2023-07-01T02:58:59.465Z,92.25
2023-07-01T03:00:03.020Z,92.26
2023-07-01T03:01:07.287Z,92.26
2023-07-01T03:02:11.738Z,92.27
2023-07-01T03:03:16.058Z,92.30
2023-07-01T03:04:21.369Z,92.28
2023-07-01T03:05:24.733Z,92.31
2023-07-01T03:06:29.075Z,92.34
2023-07-01T03:07:33.416Z,92.35
2023-07-01T03:08:37.915Z,92.50
2023-07-01T03:09:42.216Z,92.68
2023-07-01T03:10:46.961Z,92.69
2023-07-01T03:11:50.972Z,92.63
2023-07-01T03:12:55.320Z,92.55
2023-07-01T03:13:59.693Z,92.49
2023-07-01T03:15:04.057Z,92.44
2023-07-01T03:16:08.611Z,92.39
2023-07-01T03:17:12.891Z,92.36
2023-07-01T03:18:17.234Z,92.31
2023-07-01T03:19:21.660Z,92.33
2023-07-01T03:20:25.964Z,92.30
2023-07-01T03:21:30.452Z,92.27
2023-07-01T03:22:34.812Z,92.30
2023-07-01T03:23:39.131Z,92.30
2023-07-01T03:24:43.444Z,92.26
2023-07-01T03:25:47.822Z,92.23
2023-07-01T03:26:52.281Z,92.31
2023-07-01T03:27:56.632Z,92.32
2023-07-01T03:29:01.012Z,92.25
2023-07-01T03:30:05.309Z,92.27
2023-07-01T03:31:09.822Z,92.31
2023-07-01T03:32:14.260Z,92.31
2023-07-01T03:33:18.675Z,92.33
2023-07-01T03:34:23.024Z,92.32
2023-07-01T03:35:27.446Z,92.27
2023-07-01T03:36:31.802Z,92.29
2023-07-01T03:37:36.151Z,92.30
2023-07-01T03:38:40.559Z,92.31
2023-07-01T03:39:44.859Z,92.23
2023-07-01T03:40:49.634Z,92.28
2023-07-01T03:41:53.693Z,92.28
2023-07-01T03:42:58.089Z,92.28
2023-07-01T03:44:02.356Z,92.24
2023-07-01T03:45:06.814Z,92.19
2023-07-01T03:46:11.256Z,92.12
2023-07-01T03:47:15.692Z,92.10
2023-07-01T03:48:20.025Z,92.11
2023-07-01T03:49:24.318Z,92.17
2023-07-01T03:50:28.766Z,92.20
2023-07-01T03:51:33.059Z,92.21
2023-07-01T03:52:38.638Z,92.35
2023-07-01T03:53:41.783Z,92.36
2023-07-01T03:54:46.177Z,92.37
2023-07-01T03:55:50.488Z,92.37
2023-07-01T03:56:54.816Z,92.35
2023-07-01T03:57:59.247Z,92.34
2023-07-01T03:59:03.590Z,92.33
2023-07-01T04:00:07.931Z,92.40
2023-07-01T04:01:12.388Z,92.39
2023-07-01T04:02:16.722Z,92.38
2023-07-01T04:03:21.327Z,92.37
2023-07-01T04:04:25.461Z,92.38
2023-07-01T04:05:29.784Z,92.33
2023-07-01T04:06:34.125Z,92.31
2023-07-01T04:07:38.569Z,92.38
2023-07-01T04:08:42.905Z,92.33
2023-07-01T04:09:47.249Z,92.33
2023-07-01T04:10:51.618Z,92.26
2023-07-01T04:11:56.071Z,92.22
2023-07-01T04:13:00.378Z,92.19
2023-07-01T04:14:04.772Z,92.17
2023-07-01T04:15:09.080Z,92.18
2023-07-01T04:16:13.504Z,92.16
2023-07-01T04:17:17.919Z,92.15
2023-07-01T04:18:22.202Z,92.20
2023-07-01T04:19:40.666Z,92.19
2023-07-01T04:20:58.011Z,92.25
2023-07-01T04:22:01.170Z,92.21
2023-07-01T04:23:11.561Z,92.18
2023-07-01T04:24:14.630Z,92.24
2023-07-01T04:25:19.037Z,92.30
2023-07-01T04:26:23.392Z,92.28
2023-07-01T04:27:41.865Z,92.30
2023-07-01T04:28:45.268Z,92.30
2023-07-01T04:29:49.545Z,92.28
2023-07-01T04:30:54.042Z,92.26
2023-07-01T04:31:58.304Z,92.27
2023-07-01T04:33:02.767Z,92.26
2023-07-01T04:34:07.066Z,92.26
2023-07-01T04:35:11.388Z,92.24
2023-07-01T04:36:15.829Z,92.23
2023-07-01T04:37:20.225Z,92.26
2023-07-01T04:38:24.611Z,92.24
2023-07-01T04:39:29.119Z,92.26
2023-07-01T04:40:33.384Z,92.25
2023-07-01T04:41:37.760Z,92.21
2023-07-01T04:42:42.203Z,92.17
2023-07-01T04:43:46.613Z,92.12
2023-07-01T04:44:50.981Z,92.08
2023-07-01T04:45:55.273Z,92.04
2023-07-01T04:46:59.748Z,92.01
2023-07-01T04:48:07.019Z,91.97
2023-07-01T04:49:10.500Z,91.93
2023-07-01T04:50:15.072Z,91.92
2023-07-01T04:51:19.211Z,91.91
2023-07-01T04:52:23.531Z,91.87
2023-07-01T04:53:27.943Z,91.84
2023-07-01T04:54:32.314Z,91.77
2023-07-01T04:55:36.701Z,91.75
2023-07-01T04:56:41.187Z,91.72
2023-07-01T04:57:48.578Z,91.67
2023-07-01T04:59:06.012Z,91.63
2023-07-01T05:00:09.193Z,91.54
2023-07-01T05:01:13.484Z,91.49
2023-07-01T05:02:17.870Z,91.45
2023-07-01T05:03:22.364Z,91.40
2023-07-01T05:04:26.614Z,91.35
2023-07-01T05:05:31.075Z,91.28
2023-07-01T05:06:35.285Z,91.19
2023-07-01T05:07:39.827Z,91.11
2023-07-01T05:08:44.059Z,91.03
2023-07-01T05:09:49.504Z,90.98
2023-07-01T05:10:53.590Z,90.95
2023-07-01T05:11:57.834Z,90.89
2023-07-01T05:13:02.296Z,90.80
2023-07-01T05:14:06.621Z,90.72
2023-07-01T05:15:11.046Z,90.65
2023-07-01T05:16:15.376Z,90.62
2023-07-01T05:17:19.818Z,90.60
2023-07-01T05:18:24.185Z,90.55
2023-07-01T05:19:28.567Z,90.49
2023-07-01T05:20:32.895Z,90.43
2023-07-01T05:21:37.303Z,90.38
2023-07-01T05:22:41.761Z,90.27
2023-07-01T05:23:46.245Z,90.19
2023-07-01T05:24:50.642Z,90.11
2023-07-01T05:25:55.091Z,90.01
2023-07-01T05:26:59.503Z,89.90
2023-07-01T05:28:03.819Z,89.77
2023-07-01T05:29:08.276Z,89.56
2023-07-01T05:30:12.652Z,89.44
2023-07-01T05:31:17.077Z,89.27
2023-07-01T05:32:21.455Z,89.12
2023-07-01T05:33:28.750Z,88.93
2023-07-01T05:34:32.356Z,88.91
2023-07-01T05:35:36.718Z,88.88
2023-07-01T05:36:41.197Z,88.77
2023-07-01T05:37:45.571Z,88.69
2023-07-01T05:38:50.954Z,88.66
2023-07-01T05:39:54.356Z,88.68
2023-07-01T05:40:58.752Z,88.63
2023-07-01T05:42:03.180Z,88.52
2023-07-01T05:43:10.593Z,88.45
2023-07-01T05:44:28.193Z,88.39
2023-07-01T05:45:31.633Z,88.38
2023-07-01T05:46:36.156Z,88.39
2023-07-01T05:47:40.410Z,88.36
2023-07-01T05:48:44.823Z,88.33
2023-07-01T05:49:49.250Z,88.30
2023-07-01T05:50:53.660Z,88.17
2023-07-01T05:51:58.071Z,88.14
2023-07-01T05:53:02.490Z,88.05
2023-07-01T05:54:06.874Z,88.06
2023-07-01T05:55:11.295Z,88.05
2023-07-01T05:56:15.703Z,88.04
2023-07-01T05:57:20.048Z,87.94
2023-07-01T05:58:24.503Z,87.70
2023-07-01T05:59:28.931Z,87.51
2023-07-01T06:00:47.637Z,87.41
2023-07-01T06:01:50.875Z,87.39
2023-07-01T06:02:55.242Z,87.46
2023-07-01T06:03:59.554Z,87.49
2023-07-01T06:05:04.146Z,87.53
2023-07-01T06:06:08.353Z,87.56
2023-07-01T06:07:12.787Z,87.35
2023-07-01T06:08:17.225Z,87.26
2023-07-01T06:09:21.642Z,87.23
2023-07-01T06:10:31.962Z,87.22
2023-07-01T06:11:34.977Z,87.24
2023-07-01T06:12:39.525Z,87.22
2023-07-01T06:13:43.746Z,87.15
2023-07-01T06:14:48.211Z,86.98
2023-07-01T06:15:52.642Z,86.84
2023-07-01T06:16:57.076Z,86.67
2023-07-01T06:18:15.488Z,86.58
2023-07-01T06:19:18.808Z,86.20
2023-07-01T06:20:37.147Z,85.98
2023-07-01T06:21:40.554Z,86.07
2023-07-01T06:24:12.372Z,85.77
2023-07-01T06:25:16.757Z,85.89
2023-07-01T06:26:21.114Z,85.95
2023-07-01T06:27:25.490Z,85.72
2023-07-01T06:28:29.914Z,85.69
2023-07-01T06:29:34.282Z,85.71
2023-07-01T06:30:38.775Z,85.69
2023-07-01T06:31:43.286Z,85.67
2023-07-01T06:32:47.677Z,85.48
2023-07-01T06:33:51.957Z,85.39
2023-07-01T06:34:56.423Z,85.16
2023-07-01T06:36:01.824Z,85.15
2023-07-01T06:37:05.857Z,85.03
2023-07-01T06:38:10.200Z,85.10
2023-07-01T06:39:14.678Z,84.90
2023-07-01T06:40:19.111Z,84.59
2023-07-01T06:41:23.510Z,84.50
2023-07-01T06:42:27.934Z,84.34
2023-07-01T06:43:32.383Z,84.22
2023-07-01T06:44:36.792Z,84.23
2023-07-01T06:45:41.311Z,84.34
2023-07-01T06:46:45.596Z,84.49
2023-07-01T06:47:50.010Z,84.53
2023-07-01T06:48:54.442Z,84.21
2023-07-01T06:49:58.824Z,84.13
2023-07-01T06:51:03.277Z,84.14
2023-07-01T06:52:07.685Z,84.07
2023-07-01T06:53:12.212Z,84.11
2023-07-01T06:54:16.499Z,83.79
2023-07-01T06:55:20.942Z,83.86
2023-07-01T06:56:25.284Z,84.04
2023-07-01T06:57:29.734Z,83.99
2023-07-01T06:58:34.131Z,83.78
2023-07-01T06:59:52.586Z,83.74
2023-07-01T07:00:55.939Z,83.86
2023-07-01T07:02:00.337Z,83.94
2023-07-01T07:03:05.055Z,83.81
2023-07-01T07:04:09.308Z,83.70
2023-07-01T07:05:16.560Z,83.74
2023-07-01T07:06:20.057Z,83.56
2023-07-01T07:07:24.442Z,83.50
2023-07-01T07:08:28.816Z,83.50
2023-07-01T07:09:33.280Z,83.60
2023-07-01T07:10:37.680Z,83.64
2023-07-01T07:11:42.120Z,83.48
2023-07-01T07:12:46.523Z,83.49
2023-07-01T07:13:50.954Z,83.42
2023-07-01T07:14:55.364Z,83.27
2023-07-01T07:15:59.825Z,83.08
2023-07-01T07:17:04.198Z,83.10
2023-07-01T07:18:08.624Z,83.09
2023-07-01T07:19:12.994Z,82.94
2023-07-01T07:20:17.412Z,82.84
2023-07-01T07:21:21.792Z,82.87
2023-07-01T07:22:26.180Z,82.92
2023-07-01T07:23:30.659Z,82.78
2023-07-01T07:24:35.040Z,82.67
2023-07-01T07:25:42.500Z,82.64
2023-07-01T07:26:46.055Z,82.45
2023-07-01T07:27:50.535Z,82.28
2023-07-01T07:28:54.864Z,82.36
2023-07-01T07:29:59.327Z,81.84
2023-07-01T07:31:03.789Z,81.89
2023-07-01T07:32:08.089Z,82.00
2023-07-01T07:33:12.537Z,81.64
2023-07-01T07:34:16.937Z,81.52
2023-07-01T07:35:21.436Z,81.63
2023-07-01T07:36:25.857Z,81.65
2023-07-01T07:37:30.184Z,81.46
2023-07-01T07:38:34.627Z,81.59
2023-07-01T07:39:39.004Z,81.60
2023-07-01T07:40:43.504Z,81.58
2023-07-01T07:42:02.056Z,81.07
2023-07-01T07:43:05.397Z,80.92
2023-07-01T07:44:09.808Z,80.97
2023-07-01T07:45:14.248Z,80.61
2023-07-01T07:46:18.777Z,80.49
2023-07-01T07:47:23.058Z,80.47
2023-07-01T07:48:30.517Z,80.33
2023-07-01T07:49:34.052Z,80.27
2023-07-01T07:50:38.530Z,80.24
2023-07-01T07:51:43.021Z,80.15
2023-07-01T07:52:47.416Z,79.80
2023-07-01T07:53:51.833Z,79.87
2023-07-01T07:54:56.211Z,79.94
2023-07-01T07:56:00.673Z,79.99
2023-07-01T07:57:05.188Z,79.68
2023-07-01T07:58:09.592Z,79.47
2023-07-01T07:59:14.067Z,79.03
2023-07-01T08:00:18.409Z,78.48
2023-07-01T08:01:22.917Z,78.37
2023-07-01T08:02:27.342Z,78.14
2023-07-01T08:03:31.823Z,77.55
2023-07-01T08:04:36.287Z,77.29
2023-07-01T08:05:40.684Z,76.78
2023-07-01T08:06:45.181Z,76.18
2023-07-01T08:07:49.513Z,76.06
2023-07-01T08:08:53.914Z,76.28
2023-07-01T08:09:58.376Z,75.64
2023-07-01T08:11:02.736Z,75.51
2023-07-01T08:12:07.117Z,75.60
2023-07-01T08:13:11.528Z,76.19
2023-07-01T08:14:15.982Z,76.74
2023-07-01T08:15:20.412Z,76.87
2023-07-01T08:16:24.795Z,76.76
2023-07-01T08:17:29.388Z,76.53
2023-07-01T08:18:33.896Z,76.08
2023-07-01T08:19:38.145Z,76.04
2023-07-01T08:20:42.609Z,75.86
2023-07-01T08:21:47.008Z,75.65
2023-07-01T08:22:51.522Z,75.53
2023-07-01T08:23:55.895Z,75.55
2023-07-01T08:25:06.336Z,75.48
2023-07-01T08:26:09.386Z,75.71
2023-07-01T08:27:13.785Z,75.95
2023-07-01T08:28:18.109Z,76.13
2023-07-01T08:29:22.500Z,76.39
2023-07-01T08:30:40.903Z,76.51
2023-07-01T08:31:44.346Z,76.46
2023-07-01T08:32:48.830Z,76.48
2023-07-01T08:33:53.081Z,76.30
2023-07-01T08:34:57.539Z,76.36
2023-07-01T08:36:01.936Z,76.26
2023-07-01T08:37:06.314Z,76.36
2023-07-01T08:38:10.810Z,76.65
2023-07-01T08:39:15.224Z,76.80
2023-07-01T08:40:19.621Z,76.79
2023-07-01T08:41:24.114Z,76.96
2023-07-01T08:42:28.477Z,77.12
2023-07-01T08:43:33.014Z,77.24
2023-07-01T08:44:37.456Z,77.34
2023-07-01T08:45:41.919Z,77.16
2023-07-01T08:46:46.447Z,76.98
2023-07-01T08:47:50.772Z,76.94
2023-07-01T08:48:55.116Z,77.05
2023-07-01T08:50:00.552Z,77.20
2023-07-01T08:51:04.144Z,77.02
2023-07-01T08:52:08.563Z,76.54
2023-07-01T08:53:13.039Z,76.33
2023-07-01T08:54:17.439Z,76.35
2023-07-01T08:55:21.763Z,75.78
2023-07-01T08:56:26.171Z,75.66
2023-07-01T08:57:30.583Z,75.19
2023-07-01T08:58:35.054Z,74.84
2023-07-01T08:59:39.466Z,74.87
2023-07-01T09:00:43.829Z,74.31
2023-07-01T09:01:48.332Z,74.26
2023-07-01T09:02:52.831Z,74.60
2023-07-01T09:03:57.355Z,74.37
2023-07-01T09:05:01.776Z,74.61
2023-07-01T09:06:05.943Z,74.87
2023-07-01T09:07:10.369Z,75.20
2023-07-01T09:08:14.766Z,75.14
2023-07-01T09:09:19.266Z,74.94
2023-07-01T09:10:23.707Z,75.09
2023-07-01T09:11:28.255Z,74.96
2023-07-01T09:12:32.552Z,74.60
2023-07-01T09:13:36.982Z,74.25
2023-07-01T09:14:41.476Z,73.93
2023-07-01T09:15:46.390Z,73.63
2023-07-01T09:16:50.441Z,73.70
2023-07-01T09:17:54.952Z,74.17
2023-07-01T09:18:59.487Z,73.99
2023-07-01T09:20:06.806Z,74.15
2023-07-01T09:21:10.398Z,74.45
2023-07-01T09:22:14.743Z,74.42
2023-07-01T09:23:19.223Z,74.43
2023-07-01T09:24:23.664Z,74.58
2023-07-01T09:25:28.178Z,74.42
2023-07-01T09:26:32.576Z,74.19
2023-07-01T09:27:37.095Z,73.90
2023-07-01T09:28:41.560Z,73.97
2023-07-01T09:29:46.089Z,74.08
2023-07-01T09:31:04.522Z,74.40
2023-07-01T09:32:07.691Z,74.28
2023-07-01T09:33:12.120Z,74.17
2023-07-01T09:34:16.542Z,74.10
2023-07-01T09:35:34.978Z,73.85
2023-07-01T09:36:38.445Z,74.06
2023-07-01T09:37:42.805Z,73.97
2023-07-01T09:38:47.279Z,74.11
2023-07-01T09:40:05.696Z,74.12
2023-07-01T09:41:08.914Z,74.19
2023-07-01T09:42:13.366Z,74.05
2023-07-01T09:43:17.762Z,74.02
2023-07-01T09:44:22.200Z,74.06
2023-07-01T09:45:26.608Z,74.16
2023-07-01T09:46:31.104Z,73.77
2023-07-01T09:47:49.554Z,73.68
2023-07-01T09:48:52.669Z,74.00
2023-07-01T09:49:57.155Z,74.20
2023-07-01T09:51:01.595Z,74.35
2023-07-01T09:52:20.038Z,74.50
2023-07-01T09:53:23.324Z,74.10
2023-07-01T09:54:27.848Z,74.05
2023-07-01T09:55:32.227Z,73.98
2023-07-01T09:56:36.620Z,74.22
2023-07-01T09:57:41.065Z,74.35
2023-07-01T09:58:45.435Z,74.50
2023-07-01T09:59:49.907Z,74.57
2023-07-01T10:00:54.265Z,74.72
2023-07-01T10:02:12.850Z,74.92
2023-07-01T10:03:22.274Z,74.94
2023-07-01T10:04:25.292Z,75.12
2023-07-01T10:05:29.653Z,75.16
2023-07-01T10:06:34.089Z,75.51
2023-07-01T10:07:38.541Z,75.91
2023-07-01T10:08:43.003Z,76.10
2023-07-01T10:09:47.461Z,76.47
2023-07-01T10:10:51.829Z,76.41
2023-07-01T10:11:56.290Z,76.45
2023-07-01T10:13:00.830Z,76.77
2023-07-01T10:14:08.137Z,76.83
2023-07-01T10:15:12.957Z,76.84
2023-07-01T10:16:16.046Z,76.88
2023-07-01T10:17:20.727Z,77.01
2023-07-01T10:18:24.958Z,77.30
2023-07-01T10:19:29.375Z,77.86
2023-07-01T10:20:33.705Z,78.05
2023-07-01T10:21:38.104Z,78.09
2023-07-01T10:22:42.501Z,78.22
2023-07-01T10:23:46.953Z,78.31
2023-07-01T10:24:54.350Z,78.34
2023-07-01T10:25:58.008Z,78.59
2023-07-01T10:27:02.413Z,78.63
2023-07-01T10:28:06.723Z,78.89
2023-07-01T10:29:11.209Z,79.04
2023-07-01T10:30:15.666Z,79.27
2023-07-01T10:31:19.996Z,79.22
2023-07-01T10:32:24.414Z,79.25
2023-07-01T10:33:28.840Z,79.35
2023-07-01T10:34:33.284Z,79.60
2023-07-01T10:35:37.759Z,79.72
2023-07-01T10:36:42.090Z,79.98
2023-07-01T10:37:46.564Z,79.95
2023-07-01T10:38:50.952Z,80.03
2023-07-01T10:39:58.350Z,79.89
2023-07-01T10:41:01.979Z,79.77
2023-07-01T10:42:06.342Z,79.75
2023-07-01T10:43:10.705Z,79.75
2023-07-01T10:44:15.077Z,79.79
2023-07-01T10:45:19.476Z,79.97
2023-07-01T10:46:23.866Z,79.96
2023-07-01T10:47:28.451Z,79.73
2023-07-01T10:48:32.806Z,79.47
2023-07-01T10:49:37.139Z,79.21
2023-07-01T10:50:41.566Z,79.05
2023-07-01T10:51:45.965Z,78.92
2023-07-01T10:52:50.348Z,78.89
2023-07-01T10:53:54.822Z,79.03
2023-07-01T10:54:59.143Z,79.31
2023-07-01T10:56:03.508Z,79.57
2023-07-01T10:57:07.925Z,79.67
2023-07-01T10:58:12.278Z,79.99
2023-07-01T10:59:16.763Z,80.07
2023-07-01T11:00:21.205Z,80.34
2023-07-01T11:01:25.717Z,80.54
2023-07-01T11:02:30.006Z,80.71
2023-07-01T11:03:34.858Z,80.86
2023-07-01T11:04:39.004Z,81.13
2023-07-01T11:05:43.313Z,81.23
2023-07-01T11:06:47.713Z,81.57
2023-07-01T11:07:52.066Z,81.91
2023-07-01T11:08:56.470Z,82.21
2023-07-01T11:10:00.851Z,82.22
2023-07-01T11:11:05.277Z,82.10
2023-07-01T11:12:09.673Z,82.18
2023-07-01T11:13:14.083Z,82.25
2023-07-01T11:14:18.429Z,82.28
2023-07-01T11:15:22.802Z,82.30
2023-07-01T11:16:27.291Z,82.32
2023-07-01T11:17:34.688Z,82.28
2023-07-01T11:18:38.110Z,82.30
2023-07-01T11:19:42.556Z,82.72
2023-07-01T11:20:46.982Z,82.69
2023-07-01T11:21:51.427Z,82.72
2023-07-01T11:22:55.837Z,82.83
2023-07-01T11:24:00.201Z,82.93
2023-07-01T11:25:04.598Z,83.28
2023-07-01T11:26:09.095Z,83.35
2023-07-01T11:27:13.509Z,83.23
2023-07-01T11:28:20.947Z,83.62
2023-07-01T11:29:24.494Z,84.17
2023-07-01T11:30:28.959Z,84.25
2023-07-01T11:31:33.410Z,84.30
2023-07-01T11:32:37.799Z,84.43
2023-07-01T11:33:42.264Z,84.68
2023-07-01T11:34:46.572Z,84.88
2023-07-01T11:35:57.080Z,85.39
2023-07-01T11:37:00.176Z,85.63
2023-07-01T11:38:04.561Z,86.05
2023-07-01T11:39:08.974Z,86.29
2023-07-01T11:40:13.285Z,86.78
2023-07-01T11:41:17.694Z,87.25
2023-07-01T11:42:22.163Z,87.43
2023-07-01T11:43:26.573Z,87.66
2023-07-01T11:44:30.926Z,88.36
2023-07-01T11:45:35.395Z,88.94
2023-07-01T11:46:39.918Z,89.02
2023-07-01T11:47:44.337Z,89.55
2023-07-01T11:48:48.790Z,89.91
2023-07-01T11:49:53.211Z,90.44
2023-07-01T11:50:57.704Z,90.52
2023-07-01T11:52:02.003Z,90.66
2023-07-01T11:53:06.456Z,90.80
2023-07-01T11:54:13.296Z,91.08
2023-07-01T11:55:15.166Z,90.76
2023-07-01T11:56:19.591Z,91.36
2023-07-01T11:57:23.984Z,91.36
2023-07-01T11:58:28.436Z,91.87
2023-07-01T11:59:32.694Z,91.92
2023-07-01T12:00:37.080Z,92.06
2023-07-01T12:01:41.700Z,91.74
2023-07-01T12:02:45.933Z,92.17
2023-07-01T12:03:50.250Z,92.71
2023-07-01T12:04:54.736Z,93.13
2023-07-01T12:05:59.141Z,93.34
2023-07-01T12:07:04.575Z,93.54
2023-07-01T12:08:08.018Z,94.04
2023-07-01T12:09:12.311Z,94.10
2023-07-01T12:10:16.653Z,93.84
2023-07-01T12:11:21.113Z,93.84
2023-07-01T12:12:28.495Z,93.86
2023-07-01T12:13:31.867Z,93.93
2023-07-01T12:14:36.338Z,94.06
2023-07-01T12:15:40.751Z,94.18
2023-07-01T12:16:45.081Z,94.32
2023-07-01T12:17:49.528Z,94.49
2023-07-01T12:18:53.841Z,95.13
2023-07-01T12:19:58.211Z,95.33
2023-07-01T12:21:05.619Z,95.47
2023-07-01T12:22:09.078Z,95.71
2023-07-01T12:23:13.461Z,96.27
2023-07-01T12:24:17.967Z,96.32
2023-07-01T12:25:22.279Z,96.45
2023-07-01T12:26:26.714Z,96.67
2023-07-01T12:27:31.048Z,96.68
2023-07-01T12:28:35.410Z,96.63
2023-07-01T12:29:39.761Z,97.00
2023-07-01T12:30:44.237Z,97.32
2023-07-01T12:31:48.689Z,97.45
2023-07-01T12:32:53.003Z,97.31
2023-07-01T12:33:57.403Z,97.20
2023-07-01T12:35:01.754Z,97.39
2023-07-01T12:36:06.222Z,97.53
2023-07-01T12:37:10.602Z,97.68
2023-07-01T12:38:14.910Z,97.66
2023-07-01T12:39:19.340Z,97.41
2023-07-01T12:40:23.695Z,97.15
2023-07-01T12:41:28.222Z,97.24
2023-07-01T12:42:32.578Z,97.40
2023-07-01T12:43:36.930Z,97.49
2023-07-01T12:44:41.287Z,97.54
2023-07-01T12:45:49.026Z,97.59
2023-07-01T12:46:52.133Z,97.57
2023-07-01T12:47:56.541Z,97.73
2023-07-01T12:49:00.917Z,97.94
2023-07-01T12:50:19.276Z,97.98
2023-07-01T12:51:22.558Z,98.07
2023-07-01T12:52:26.848Z,98.14
2023-07-01T12:53:31.273Z,98.04
2023-07-01T12:54:35.671Z,98.28
2023-07-01T12:55:40.001Z,98.49
2023-07-01T12:56:44.381Z,98.65
2023-07-01T12:57:48.904Z,98.81
2023-07-01T12:58:53.267Z,98.87
2023-07-01T12:59:57.614Z,99.04
2023-07-01T13:01:07.025Z,99.32
2023-07-01T13:02:20.534Z,99.85
2023-07-01T13:03:23.883Z,100.00
2023-07-01T13:04:28.494Z,100.00
2023-07-01T13:05:32.686Z,100.00
2023-07-01T13:06:37.124Z,100.00
2023-07-01T13:07:41.401Z,100.00
2023-07-01T13:08:45.834Z,100.00
2023-07-01T13:09:50.354Z,100.00
2023-07-01T13:10:54.658Z,100.00
2023-07-01T13:11:58.945Z,100.00
2023-07-01T13:13:03.322Z,100.00
2023-07-01T13:14:07.684Z,100.00
2023-07-01T13:15:12.097Z,100.00
2023-07-01T13:16:16.461Z,100.00
2023-07-01T13:17:20.942Z,100.00
2023-07-01T13:18:25.311Z,100.00
2023-07-01T13:19:29.693Z,100.00
2023-07-01T13:20:34.040Z,100.00
2023-07-01T13:21:38.489Z,100.00
2023-07-01T13:22:42.836Z,100.00
2023-07-01T13:23:47.246Z,100.00
2023-07-01T13:24:51.632Z,100.00
2023-07-01T13:25:56.050Z,100.00
2023-07-01T13:27:00.523Z,100.00
2023-07-01T13:28:04.939Z,100.00
2023-07-01T13:29:09.287Z,100.00
2023-07-01T13:30:13.604Z,100.00
2023-07-01T13:31:18.127Z,100.00
2023-07-01T13:32:22.468Z,100.00
2023-07-01T13:33:26.752Z,100.00
2023-07-01T13:34:31.148Z,100.00
2023-07-01T13:35:35.537Z,100.00
2023-07-01T13:36:39.862Z,100.00
2023-07-01T13:37:44.196Z,100.00
2023-07-01T13:38:48.576Z,100.00
2023-07-01T13:39:53.114Z,100.00
2023-07-01T13:41:11.409Z,100.00
2023-07-01T13:42:14.805Z,100.00
2023-07-01T13:43:19.147Z,100.00
2023-07-01T13:44:23.521Z,100.00
2023-07-01T13:45:41.847Z,100.00
2023-07-01T13:46:45.338Z,100.00
2023-07-01T13:47:49.768Z,100.00
2023-07-01T13:48:53.874Z,100.00
2023-07-01T13:49:58.222Z,100.00
2023-07-01T13:51:02.597Z,100.00
2023-07-01T13:52:06.923Z,100.00
2023-07-01T13:53:14.395Z,100.00
2023-07-01T13:54:17.996Z,100.00
2023-07-01T13:55:22.294Z,100.00
2023-07-01T13:56:26.656Z,100.00
2023-07-01T13:57:31.110Z,100.00